createdAt,value
2018-01-15T00:02:24.494Z,24.27
2018-01-15T00:04:52.820Z,25.55
2018-01-15T00:07:20.399Z,24.27
2018-01-15T00:09:48.309Z,23.58
2018-01-15T00:12:15.884Z,25.05
2018-01-15T00:14:44.501Z,23.45
2018-01-15T00:17:12.817Z,24.30
2018-01-15T00:19:40.373Z,23.83
2018-01-15T00:22:08.145Z,23.95
2018-01-15T00:24:36.444Z,23.70
2018-01-15T00:27:04.791Z,24.15
2018-01-15T00:29:32.362Z,26.17
2018-01-15T00:31:59.909Z,25.17
2018-01-15T00:34:27.506Z,22.55
2018-01-15T00:36:55.852Z,25.40
2018-01-15T00:39:23.492Z,25.85
2018-01-15T00:41:51.254Z,26.67
2018-01-15T00:44:19.680Z,26.45
2018-01-15T00:46:48.019Z,26.58
2018-01-15T00:49:16.377Z,23.77
2018-01-15T00:51:45.003Z,26.30
2018-01-15T00:54:12.564Z,26.17
2018-01-15T00:56:40.142Z,26.40
2018-01-15T00:59:07.716Z,29.02
2018-01-15T01:01:35.265Z,26.40
2018-01-15T01:04:03.590Z,26.90
2018-01-15T01:06:31.900Z,26.48
2018-01-15T01:09:00.233Z,28.15
2018-01-15T01:11:27.776Z,25.70
2018-01-15T01:13:56.099Z,25.95
2018-01-15T01:16:23.614Z,27.23
2018-01-15T01:18:51.935Z,27.50
2018-01-15T01:21:19.460Z,26.25
2018-01-15T01:23:47.829Z,27.73
2018-01-15T01:26:15.374Z,29.25
2018-01-15T01:28:43.704Z,29.60
2018-01-15T01:31:11.298Z,29.20
2018-01-15T01:33:38.853Z,27.55
2018-01-15T01:36:06.397Z,29.55
2018-01-15T01:38:34.720Z,27.62
2018-01-15T01:41:02.243Z,29.70
2018-01-15T01:43:29.809Z,29.40
2018-01-15T01:45:58.231Z,26.65
2018-01-15T01:48:25.764Z,27.08
2018-01-15T01:50:54.060Z,26.92
2018-01-15T01:53:22.394Z,26.73
2018-01-15T01:55:49.982Z,28.10
2018-01-15T01:58:18.308Z,26.23
2018-01-15T02:00:45.925Z,27.10
2018-01-15T02:03:14.990Z,26.67
2018-01-15T02:05:42.570Z,27.13
2018-01-15T02:08:10.872Z,27.73
2018-01-15T02:10:38.441Z,28.00
2018-01-15T02:13:06.728Z,27.80
2018-01-15T02:15:34.284Z,25.90
2018-01-15T02:18:01.817Z,27.87
2018-01-15T02:20:30.140Z,27.15
2018-01-15T02:22:58.456Z,27.98
2018-01-15T02:25:25.982Z,26.27
2018-01-15T02:27:53.548Z,26.45
2018-01-15T02:30:21.084Z,28.42
2018-01-15T02:32:48.716Z,28.58
2018-01-15T02:35:16.271Z,26.75
2018-01-15T02:37:43.834Z,28.52
2018-01-15T02:40:11.408Z,25.60
2018-01-15T02:42:39.766Z,25.67
2018-01-15T02:45:07.339Z,28.08
2018-01-15T02:47:34.887Z,26.15
2018-01-15T02:50:03.197Z,28.05
2018-01-15T02:52:30.759Z,28.65
2018-01-15T02:54:58.332Z,28.02
2018-01-15T02:57:26.637Z,26.00
2018-01-15T02:59:54.977Z,25.00
2018-01-15T03:02:23.267Z,25.60
2018-01-15T03:04:50.817Z,25.98
2018-01-15T03:07:18.365Z,24.83
2018-01-15T03:09:46.011Z,22.92
2018-01-15T03:12:14.316Z,23.25
2018-01-15T03:14:42.655Z,23.60
2018-01-15T03:17:10.161Z,22.98
2018-01-15T03:19:37.724Z,24.75
2018-01-15T03:22:06.022Z,24.05
2018-01-15T03:24:33.596Z,25.17
2018-01-15T03:27:01.892Z,23.42
2018-01-15T03:29:29.411Z,22.77
2018-01-15T03:31:57.006Z,22.23
2018-01-15T03:34:24.554Z,22.23
2018-01-15T03:36:52.859Z,24.30
2018-01-15T03:39:21.176Z,21.83
2018-01-15T03:41:48.708Z,21.15
2018-01-15T03:44:16.247Z,21.98
2018-01-15T03:46:43.761Z,21.00
2018-01-15T03:49:11.317Z,21.37
2018-01-15T03:51:38.848Z,22.30
2018-01-15T03:54:06.368Z,21.17
2018-01-15T03:56:33.909Z,20.80
2018-01-15T03:59:01.425Z,21.73
2018-01-15T04:01:28.992Z,21.92
2018-01-15T04:03:57.282Z,21.40
2018-01-15T04:06:25.613Z,20.62
2018-01-15T04:08:53.142Z,22.85
2018-01-15T04:11:20.692Z,22.45
2018-01-15T04:13:48.261Z,23.95
2018-01-15T04:16:15.787Z,20.98
2018-01-15T04:18:43.373Z,21.48
2018-01-15T04:21:10.941Z,22.77
2018-01-15T04:23:38.480Z,22.27
2018-01-15T04:26:06.847Z,21.92
2018-01-15T04:28:34.367Z,25.10
2018-01-15T04:31:02.687Z,24.00
2018-01-15T04:33:30.222Z,24.15
2018-01-15T04:35:57.771Z,22.80
2018-01-15T04:38:26.073Z,24.27
2018-01-15T04:40:53.596Z,23.67
2018-01-15T04:43:21.144Z,22.08
2018-01-15T04:45:48.681Z,41.37
2018-01-15T04:48:16.252Z,32.72
2018-01-15T04:50:43.830Z,25.23
2018-01-15T04:53:11.368Z,24.52
2018-01-15T04:55:38.935Z,23.48
2018-01-15T04:58:06.489Z,24.02
2018-01-15T05:00:34.178Z,25.45
2018-01-15T05:03:01.723Z,25.73
2018-01-15T05:05:29.261Z,24.65
2018-01-15T05:07:56.841Z,25.50
2018-01-15T05:10:24.361Z,25.77
2018-01-15T05:12:52.674Z,25.05
2018-01-15T05:15:20.222Z,24.80
2018-01-15T05:17:48.556Z,25.10
2018-01-15T05:20:16.101Z,24.17
2018-01-15T05:22:43.747Z,23.85
2018-01-15T05:25:11.315Z,24.60
2018-01-15T05:27:38.864Z,24.27
2018-01-15T05:30:07.209Z,23.95
2018-01-15T05:32:34.737Z,24.63
2018-01-15T05:35:03.177Z,27.67
2018-01-15T05:37:30.741Z,25.25
2018-01-15T05:39:58.277Z,24.10
2018-01-15T05:42:26.605Z,23.10
2018-01-15T05:44:54.144Z,21.65
2018-01-15T05:47:22.454Z,24.83
2018-01-15T05:49:50.786Z,22.85
2018-01-15T05:52:18.364Z,25.37
2018-01-15T05:54:45.937Z,23.40
2018-01-15T05:57:13.480Z,24.50
2018-01-15T05:59:41.005Z,23.25
2018-01-15T06:02:08.525Z,23.75
2018-01-15T06:04:36.069Z,22.90
2018-01-15T06:07:04.368Z,23.23
2018-01-15T06:09:32.682Z,22.15
2018-01-15T06:12:00.969Z,23.60
2018-01-15T06:14:28.520Z,22.95
2018-01-15T06:16:56.252Z,22.48
2018-01-15T06:19:24.549Z,24.05
2018-01-15T06:21:52.975Z,22.70
2018-01-15T06:24:20.526Z,22.23
2018-01-15T06:26:48.256Z,23.02
2018-01-15T06:29:15.774Z,21.23
2018-01-15T06:31:43.389Z,22.00
2018-01-15T06:34:10.931Z,21.60
2018-01-15T06:36:38.463Z,21.60
2018-01-15T06:39:06.875Z,22.92
2018-01-15T06:41:35.188Z,20.50
2018-01-15T06:44:03.496Z,20.70
2018-01-15T06:46:31.121Z,20.62
2018-01-15T06:48:58.674Z,19.30
2018-01-15T06:51:26.284Z,21.02
2018-01-15T06:53:53.889Z,21.52
2018-01-15T06:56:21.474Z,21.05
2018-01-15T06:58:49.058Z,22.67
2018-01-15T07:01:17.379Z,21.20
2018-01-15T07:03:45.079Z,20.48
2018-01-15T07:06:12.650Z,21.65
2018-01-15T07:08:40.167Z,27.62
2018-01-15T07:11:07.723Z,21.60
2018-01-15T07:13:36.018Z,20.95
2018-01-15T07:16:03.586Z,20.25
2018-01-15T07:18:31.130Z,20.02
2018-01-15T07:20:59.456Z,20.98
2018-01-15T07:23:27.024Z,21.20
2018-01-15T07:25:55.404Z,22.70
2018-01-15T07:28:23.591Z,20.60
2018-01-15T07:30:51.174Z,22.33
2018-01-15T07:33:19.628Z,21.33
2018-01-15T07:35:47.190Z,20.20
2018-01-15T07:38:14.727Z,20.95
2018-01-15T07:40:42.364Z,21.75
2018-01-15T07:43:09.994Z,20.45
2018-01-15T07:45:37.531Z,22.00
2018-01-15T07:48:05.885Z,21.42
2018-01-15T07:50:34.201Z,21.50
2018-01-15T07:53:01.755Z,21.37
2018-01-15T07:55:29.339Z,21.02
2018-01-15T07:57:57.204Z,21.23
2018-01-15T08:00:24.744Z,21.55
2018-01-15T08:02:52.295Z,19.55
2018-01-15T08:05:20.634Z,19.37
2018-01-15T08:07:48.333Z,23.00
2018-01-15T08:10:15.888Z,20.77
2018-01-15T08:12:44.198Z,20.02
2018-01-15T08:15:11.803Z,21.25
2018-01-15T08:17:39.385Z,21.40
2018-01-15T08:20:07.065Z,20.30
2018-01-15T08:22:34.669Z,20.65
2018-01-15T08:25:02.250Z,20.80
2018-01-15T08:27:29.815Z,20.55
2018-01-15T08:29:58.101Z,21.50
2018-01-15T08:32:25.644Z,22.35
2018-01-15T08:34:53.221Z,20.50
2018-01-15T08:37:20.812Z,19.73
2018-01-15T08:39:48.497Z,21.05
2018-01-15T08:42:16.080Z,22.00
2018-01-15T08:44:43.659Z,20.10
2018-01-15T08:47:11.280Z,20.10
2018-01-15T08:49:38.887Z,20.05
2018-01-15T08:52:07.224Z,21.10
2018-01-15T08:54:34.773Z,19.33
2018-01-15T08:57:03.114Z,18.62
2018-01-15T08:59:30.649Z,20.95
2018-01-15T09:01:59.859Z,20.17
2018-01-15T09:04:27.484Z,20.60
2018-01-15T09:06:55.002Z,20.40
2018-01-15T09:09:22.669Z,20.80
2018-01-15T09:11:50.256Z,20.88
2018-01-15T09:14:18.654Z,20.90
2018-01-15T09:16:46.218Z,20.98
2018-01-15T09:19:13.896Z,20.63
2018-01-15T09:21:42.376Z,19.57
2018-01-15T09:24:10.774Z,21.27
2018-01-15T09:26:38.322Z,19.97
2018-01-15T09:29:05.876Z,19.53
2018-01-15T09:31:34.200Z,19.75
2018-01-15T09:34:02.500Z,21.80
2018-01-15T09:36:30.023Z,20.33
2018-01-15T09:38:57.699Z,20.07
2018-01-15T09:41:25.241Z,20.93
2018-01-15T09:43:53.584Z,19.50
2018-01-15T09:46:21.102Z,19.50
2018-01-15T09:48:48.710Z,19.13
2018-01-15T09:51:16.367Z,19.93
2018-01-15T09:53:43.889Z,20.37
2018-01-15T09:56:12.353Z,19.20
2018-01-15T09:58:39.910Z,18.23
2018-01-15T10:01:07.680Z,19.40
2018-01-15T10:03:37.242Z,19.70
2018-01-15T10:06:05.006Z,19.40
2018-01-15T10:08:34.084Z,20.50
2018-01-15T10:11:01.963Z,19.70
2018-01-15T10:13:29.535Z,17.47
2018-01-15T10:15:57.117Z,17.90
2018-01-15T10:18:24.678Z,17.90
2018-01-15T10:20:52.330Z,17.40
2018-01-15T10:23:20.151Z,17.90
2018-01-15T10:25:47.875Z,16.50
2018-01-15T10:28:15.422Z,17.30
2018-01-15T10:30:43.958Z,17.87
2018-01-15T10:33:11.583Z,17.33
2018-01-15T10:35:39.124Z,18.30
2018-01-15T10:38:06.792Z,18.40
2018-01-15T10:40:35.121Z,17.40
2018-01-15T10:43:02.791Z,18.00
2018-01-15T10:45:31.103Z,15.10
2018-01-15T10:47:59.569Z,15.03
2018-01-15T10:50:27.173Z,15.57
2018-01-15T10:52:54.756Z,16.40
2018-01-15T10:55:22.338Z,16.70
2018-01-15T10:57:49.937Z,15.07
2018-01-15T11:00:17.497Z,15.43
2018-01-15T11:02:45.089Z,13.80
2018-01-15T11:05:12.655Z,14.17
2018-01-15T11:07:40.285Z,16.20
2018-01-15T11:10:07.840Z,13.73
2018-01-15T11:12:35.415Z,17.00
2018-01-15T11:15:02.949Z,17.53
2018-01-15T11:17:30.509Z,16.30
2018-01-15T11:19:58.116Z,16.23
2018-01-15T11:22:26.424Z,15.50
2018-01-15T11:24:54.017Z,17.17
2018-01-15T11:27:21.559Z,16.53
2018-01-15T11:29:49.164Z,16.63
2018-01-15T11:32:16.921Z,17.30
2018-01-15T11:34:44.589Z,16.07
2018-01-15T11:37:12.145Z,15.33
2018-01-15T11:39:40.023Z,15.50
2018-01-15T11:42:07.682Z,15.87
2018-01-15T11:44:35.312Z,13.07
2018-01-15T11:47:02.874Z,11.80
2018-01-15T11:49:30.420Z,14.60
2018-01-15T11:51:58.012Z,12.90
2018-01-15T11:54:26.350Z,11.43
2018-01-15T11:56:53.937Z,10.80
2018-01-15T11:59:21.540Z,13.67
2018-01-15T12:01:49.150Z,12.27
2018-01-15T12:04:17.520Z,12.57
2018-01-15T12:06:45.055Z,10.70
2018-01-15T12:09:13.409Z,11.70
2018-01-15T12:11:40.972Z,12.00
2018-01-15T12:14:08.537Z,11.73
2018-01-15T12:16:36.867Z,11.10
2018-01-15T12:19:04.426Z,11.67
2018-01-15T12:21:32.139Z,11.40
2018-01-15T12:23:59.661Z,11.90
2018-01-15T12:26:27.256Z,11.90
2018-01-15T12:28:55.543Z,10.80
2018-01-15T12:31:23.130Z,9.90
2018-01-15T12:33:51.446Z,9.53
2018-01-15T12:36:19.961Z,11.73
2018-01-15T12:38:47.509Z,11.57
2018-01-15T12:41:15.130Z,11.40
2018-01-15T12:43:42.653Z,11.43
2018-01-15T12:46:10.304Z,11.47
2018-01-15T12:48:38.703Z,10.83
2018-01-15T12:51:07.023Z,11.10
2018-01-15T12:53:34.657Z,10.50
2018-01-15T12:56:02.216Z,10.40
2018-01-15T12:58:29.756Z,12.03
2018-01-15T13:00:57.341Z,12.23
2018-01-15T13:03:24.874Z,13.20
2018-01-15T13:05:52.471Z,13.07
2018-01-15T13:11:21.533Z,13.83
2018-01-15T13:13:49.164Z,12.50
2018-01-15T13:16:16.792Z,12.50
2018-01-15T13:18:44.420Z,12.50
2018-01-15T13:21:12.010Z,11.20
2018-01-15T13:23:39.555Z,10.37
2018-01-15T13:26:07.149Z,11.67
2018-01-15T13:28:34.712Z,11.70
2018-01-15T13:31:03.091Z,11.03
2018-01-15T13:33:30.648Z,13.40
2018-01-15T13:35:58.252Z,13.07
2018-01-15T13:38:26.015Z,11.90
2018-01-15T13:40:53.555Z,11.27
2018-01-15T13:43:21.241Z,10.40
2018-01-15T13:45:49.551Z,10.20
2018-01-15T13:48:17.246Z,10.67
2018-01-15T13:50:44.826Z,10.60
2018-01-15T13:53:12.434Z,11.23
2018-01-15T13:55:39.984Z,9.17
2018-01-15T13:58:08.355Z,8.90
2018-01-15T14:00:35.962Z,10.73
2018-01-15T14:03:04.340Z,10.20
2018-01-15T14:05:31.909Z,9.83
2018-01-15T14:07:59.443Z,9.60
2018-01-15T14:10:27.936Z,10.93
2018-01-15T14:12:56.249Z,10.10
2018-01-15T14:15:24.540Z,9.73
2018-01-15T14:17:52.924Z,10.47
2018-01-15T14:20:20.549Z,11.00
2018-01-15T14:22:49.093Z,11.23
2018-01-15T14:25:16.664Z,11.17
2018-01-15T14:27:44.233Z,10.20
2018-01-15T14:30:12.529Z,10.40
2018-01-15T14:32:40.125Z,11.30
2018-01-15T14:35:07.713Z,13.80
2018-01-15T14:37:35.414Z,14.43
2018-01-15T14:40:03.017Z,14.83
2018-01-15T14:42:31.400Z,14.23
2018-01-15T14:44:58.960Z,15.50
2018-01-15T14:47:27.241Z,14.23
2018-01-15T14:49:54.957Z,14.93
2018-01-15T14:52:22.517Z,13.83
2018-01-15T14:54:50.223Z,14.13
2018-01-15T14:57:17.877Z,13.43
2018-01-15T14:59:45.531Z,14.77
2018-01-15T15:02:13.098Z,14.17
2018-01-15T15:04:41.515Z,14.83
2018-01-15T15:07:09.078Z,14.50
2018-01-15T15:09:36.611Z,15.40
2018-01-15T15:12:04.210Z,13.30
2018-01-15T15:14:31.830Z,12.80
2018-01-15T15:16:59.377Z,12.60
2018-01-15T15:19:26.926Z,13.80
2018-01-15T15:21:54.557Z,11.63
2018-01-15T15:24:22.116Z,13.10
2018-01-15T15:26:49.697Z,11.77
2018-01-15T15:29:17.351Z,12.50
2018-01-15T15:31:45.013Z,11.90
2018-01-15T15:34:12.722Z,12.20
2018-01-15T15:36:41.022Z,12.07
2018-01-15T15:39:09.549Z,10.97
2018-01-15T15:41:37.320Z,10.60
2018-01-15T15:44:04.894Z,11.70
2018-01-15T15:46:33.212Z,11.07
2018-01-15T15:49:00.860Z,11.30
2018-01-15T15:51:28.427Z,11.30
2018-01-15T15:53:55.944Z,9.43
2018-01-15T15:56:23.697Z,11.10
2018-01-15T15:58:51.281Z,10.50
2018-01-15T16:01:18.856Z,9.70
2018-01-15T16:03:46.449Z,11.60
2018-01-15T16:06:14.097Z,10.40
2018-01-15T16:08:41.671Z,11.13
2018-01-15T16:11:10.116Z,10.47
2018-01-15T16:13:37.914Z,10.80
2018-01-15T16:16:05.653Z,10.60
2018-01-15T16:18:33.942Z,11.90
2018-01-15T16:21:02.289Z,10.53
2018-01-15T16:23:29.852Z,11.00
2018-01-15T16:25:57.417Z,11.00
2018-01-15T16:28:24.966Z,10.20
2018-01-15T16:30:52.616Z,10.73
2018-01-15T16:33:20.185Z,10.60
2018-01-15T16:35:48.508Z,11.33
2018-01-15T16:38:16.089Z,10.50
2018-01-15T16:40:43.639Z,10.73
2018-01-15T16:43:11.379Z,10.70
2018-01-15T16:45:38.887Z,10.70
2018-01-15T16:48:06.433Z,10.90
2018-01-15T16:50:33.979Z,10.60
2018-01-15T16:53:02.298Z,10.30
2018-01-15T16:55:29.976Z,12.00
2018-01-15T16:57:58.253Z,10.70
2018-01-15T17:00:25.793Z,11.63
2018-01-15T17:02:53.386Z,10.07
2018-01-15T17:05:20.914Z,10.83
2018-01-15T17:07:48.549Z,10.47
2018-01-15T17:10:16.073Z,12.50
2018-01-15T17:12:43.609Z,10.80
2018-01-15T17:15:11.179Z,10.50
2018-01-15T17:17:39.509Z,10.80
2018-01-15T17:20:07.048Z,10.60
2018-01-15T17:22:34.602Z,9.20
2018-01-15T17:25:02.198Z,9.13
2018-01-15T17:27:30.523Z,10.70
2018-01-15T17:29:58.065Z,11.77
2018-01-15T17:32:25.792Z,10.67
2018-01-15T17:34:53.328Z,10.20
2018-01-15T17:37:21.704Z,10.83
2018-01-15T17:39:49.325Z,10.63
2018-01-15T17:42:17.791Z,11.50
2018-01-15T17:44:45.371Z,10.10
2018-01-15T17:47:12.906Z,9.80
2018-01-15T17:49:41.243Z,9.13
2018-01-15T17:52:08.817Z,9.70
2018-01-15T17:54:36.369Z,10.60
2018-01-15T17:57:04.693Z,10.53
2018-01-15T17:59:33.048Z,10.73
2018-01-15T18:02:00.625Z,11.77
2018-01-15T18:04:28.265Z,11.30
2018-01-15T18:06:56.565Z,10.70
2018-01-15T18:09:24.993Z,11.07
2018-01-15T18:11:52.643Z,9.30
2018-01-15T18:14:20.323Z,10.90
2018-01-15T18:16:48.075Z,10.50
2018-01-15T18:19:16.648Z,9.80
2018-01-15T18:21:45.097Z,11.50
2018-01-15T18:24:12.653Z,11.37
2018-01-15T18:26:40.364Z,11.30
2018-01-15T18:29:08.975Z,10.87
2018-01-15T18:31:36.642Z,11.70
2018-01-15T18:34:04.177Z,12.40
2018-01-15T18:36:32.144Z,13.03
2018-01-15T18:38:59.685Z,10.13
2018-01-15T18:41:27.980Z,11.00
2018-01-15T18:43:56.407Z,10.63
2018-01-15T18:46:24.077Z,12.87
2018-01-15T18:48:52.398Z,11.77
2018-01-15T18:51:20.111Z,11.47
2018-01-15T18:53:48.591Z,11.50
2018-01-15T18:56:16.253Z,12.80
2018-01-15T18:58:43.792Z,12.80
2018-01-15T19:01:11.511Z,12.80
2018-01-15T19:03:39.216Z,11.60
2018-01-15T19:06:06.733Z,11.87
2018-01-15T19:08:34.285Z,13.10
2018-01-15T19:11:02.003Z,11.40
2018-01-15T19:13:29.562Z,12.00
2018-01-15T19:15:57.213Z,12.57
2018-01-15T19:18:24.776Z,10.80
2018-01-15T19:20:53.165Z,12.03
2018-01-15T19:23:20.693Z,12.10
2018-01-15T19:25:48.423Z,12.23
2018-01-15T19:28:16.739Z,13.20
2018-01-15T19:30:44.393Z,12.33
2018-01-15T19:33:12.098Z,14.03
2018-01-15T19:38:50.188Z,12.40
2018-01-15T19:41:18.752Z,13.33
2018-01-15T19:46:51.673Z,12.57
2018-01-15T19:49:24.997Z,12.23
2018-01-15T19:51:58.329Z,12.87
2018-01-15T19:54:31.784Z,11.87
2018-01-15T19:57:04.861Z,12.90
2018-01-15T19:59:38.044Z,13.20
2018-01-15T20:02:11.948Z,13.10
2018-01-15T20:04:45.194Z,12.43
2018-01-15T20:07:19.561Z,13.93
2018-01-15T20:09:52.933Z,13.77
2018-01-15T20:12:20.487Z,14.57
2018-01-15T20:14:48.150Z,16.07
2018-01-15T20:17:15.674Z,15.40
2018-01-15T20:19:43.245Z,16.87
2018-01-15T20:22:10.965Z,14.50
2018-01-15T20:24:38.515Z,16.07
2018-01-15T20:27:06.322Z,16.20
2018-01-15T20:29:33.875Z,16.60
2018-01-15T20:32:01.533Z,15.87
2018-01-15T20:34:29.122Z,15.83
2018-01-15T20:36:57.520Z,16.83
2018-01-15T20:39:25.969Z,17.33
2018-01-15T20:41:53.623Z,17.17
2018-01-15T20:44:21.252Z,17.63
2018-01-15T20:46:48.963Z,19.00
2018-01-15T20:49:16.537Z,17.07
2018-01-15T20:51:44.112Z,17.23
2018-01-15T20:54:11.694Z,16.80
2018-01-15T20:56:39.307Z,18.53
2018-01-15T20:59:06.930Z,19.10
2018-01-15T21:01:34.719Z,17.70
2018-01-15T21:04:02.274Z,16.03
2018-01-15T21:06:30.592Z,17.90
2018-01-15T21:08:58.962Z,17.03
2018-01-15T21:11:26.477Z,16.37
2018-01-15T21:13:54.815Z,16.50
2018-01-15T21:16:22.358Z,15.70
2018-01-15T21:18:50.715Z,15.10
2018-01-15T21:21:18.273Z,16.17
2018-01-15T21:23:45.889Z,16.17
2018-01-15T21:26:13.423Z,15.50
2018-01-15T21:28:41.772Z,15.20
2018-01-15T21:31:09.427Z,15.37
2018-01-15T21:33:37.018Z,15.40
2018-01-15T21:36:05.317Z,15.57
2018-01-15T21:38:34.208Z,15.30
2018-01-15T21:41:01.759Z,15.83
2018-01-15T21:43:29.301Z,17.00
2018-01-15T21:45:56.878Z,14.73
2018-01-15T21:48:24.419Z,15.00
2018-01-15T21:50:52.018Z,15.00
2018-01-15T21:53:19.613Z,15.27
2018-01-15T21:55:47.270Z,14.33
2018-01-15T21:58:14.834Z,12.70
2018-01-15T22:00:43.123Z,13.80
2018-01-15T22:03:11.479Z,11.60
2018-01-15T22:05:39.050Z,11.30
2018-01-15T22:08:06.620Z,12.10
2018-01-15T22:10:36.770Z,12.60
2018-01-15T22:13:06.246Z,12.80
2018-01-15T22:15:33.929Z,11.10
2018-01-15T22:18:01.461Z,11.30
2018-01-15T22:20:29.094Z,12.50
2018-01-15T22:22:56.631Z,12.50
2018-01-15T22:25:24.147Z,10.53
2018-01-15T22:27:51.740Z,10.63
2018-01-15T22:30:19.282Z,11.43
2018-01-15T22:32:46.812Z,10.43
2018-01-15T22:35:14.350Z,8.90
2018-01-15T22:37:41.888Z,8.47
2018-01-15T22:40:09.472Z,9.10
2018-01-15T22:42:37.111Z,7.97
2018-01-15T22:45:04.657Z,7.03
2018-01-15T22:47:32.945Z,5.90
2018-01-15T22:50:00.508Z,6.33
2018-01-15T22:52:28.022Z,6.30
2018-01-15T22:54:55.565Z,8.37
2018-01-15T22:57:23.130Z,7.10
2018-01-15T22:59:50.704Z,7.00
2018-01-15T23:02:19.004Z,7.17
2018-01-15T23:04:47.348Z,6.87
2018-01-15T23:07:14.882Z,7.00
2018-01-15T23:09:42.398Z,6.77
2018-01-15T23:12:10.753Z,7.17
2018-01-15T23:14:38.274Z,5.80
2018-01-15T23:17:06.569Z,5.97
2018-01-15T23:19:34.900Z,5.87
2018-01-15T23:22:02.438Z,4.73
2018-01-15T23:24:29.960Z,4.57
2018-01-15T23:26:58.320Z,4.80
2018-01-15T23:29:25.874Z,4.30
2018-01-15T23:31:53.504Z,4.03
2018-01-15T23:34:21.062Z,3.80
2018-01-15T23:36:48.678Z,3.90
2018-01-15T23:39:16.198Z,3.20
2018-01-15T23:41:43.734Z,2.63
2018-01-15T23:44:11.270Z,2.00
2018-01-15T23:46:38.846Z,2.40
2018-01-15T23:49:06.419Z,2.20
2018-01-15T23:54:07.749Z,2.00
2018-01-15T23:56:36.165Z,2.50
2018-01-15T23:59:04.475Z,2.47
